createdAt,value
2023-04-26T00:02:25.337Z,17.40
2023-04-26T00:04:56.262Z,17.30
2023-04-26T00:07:26.882Z,17.40
2023-04-26T00:09:54.985Z,17.40
2023-04-26T00:12:23.032Z,17.40
2023-04-26T00:14:51.108Z,17.40
2023-04-26T00:17:19.174Z,17.50
2023-04-26T00:19:47.282Z,17.50
2023-04-26T00:22:15.393Z,17.50
2023-04-26T00:24:44.875Z,17.40
2023-04-26T00:27:12.917Z,17.30
2023-04-26T00:29:41.016Z,17.40
2023-04-26T00:32:09.190Z,17.30
2023-04-26T00:34:37.899Z,17.30
2023-04-26T00:37:06.138Z,17.30
2023-04-26T00:39:34.214Z,17.40
2023-04-26T00:42:03.670Z,17.40
2023-04-26T00:44:31.726Z,17.40
2023-04-26T00:46:59.808Z,17.40
2023-04-26T00:49:27.883Z,17.40
2023-04-26T00:51:55.972Z,17.40
2023-04-26T00:54:24.037Z,17.30
2023-04-26T00:56:53.322Z,17.20
2023-04-26T00:59:22.835Z,17.30
2023-04-26T01:01:50.929Z,17.20
2023-04-26T01:04:19.288Z,17.30
2023-04-26T01:06:47.474Z,17.30
2023-04-26T01:09:16.461Z,17.30
2023-04-26T01:11:44.706Z,17.40
2023-04-26T01:14:12.758Z,17.30
2023-04-26T01:16:42.277Z,17.30
2023-04-26T01:19:12.417Z,17.30
2023-04-26T01:21:40.624Z,17.30
2023-04-26T01:24:10.674Z,17.20
2023-04-26T01:26:44.141Z,17.20
2023-04-26T01:29:16.154Z,17.20
2023-04-26T01:31:44.306Z,17.10
2023-04-26T01:34:12.396Z,17.10
2023-04-26T01:36:40.600Z,17.10
2023-04-26T01:39:10.472Z,17.10
2023-04-26T01:41:38.527Z,17.10
2023-04-26T01:44:07.156Z,17.10
2023-04-26T01:46:35.236Z,17.20
2023-04-26T01:49:03.333Z,17.20
2023-04-26T01:51:31.411Z,17.20
2023-04-26T01:53:59.491Z,17.20
2023-04-26T01:56:29.021Z,17.20
2023-04-26T01:58:57.517Z,17.20
2023-04-26T02:01:25.710Z,17.10
2023-04-26T02:03:53.913Z,17.10
2023-04-26T02:06:22.383Z,17.20
2023-04-26T02:08:50.506Z,17.20
2023-04-26T02:11:18.589Z,17.10
2023-04-26T02:13:48.050Z,17.20
2023-04-26T02:16:16.986Z,17.20
2023-04-26T02:18:45.534Z,17.20
2023-04-26T02:21:13.612Z,17.20
2023-04-26T02:23:41.694Z,17.20
2023-04-26T02:26:09.728Z,17.10
2023-04-26T02:28:37.981Z,17.10
2023-04-26T02:31:07.502Z,17.10
2023-04-26T02:33:35.632Z,17.10
2023-04-26T02:36:05.038Z,17.10
2023-04-26T02:38:34.719Z,17.20
2023-04-26T02:41:02.914Z,17.20
2023-04-26T02:43:31.110Z,17.20
2023-04-26T02:46:01.172Z,17.10
2023-04-26T02:48:30.661Z,17.20
2023-04-26T02:50:58.698Z,17.20
2023-04-26T02:53:26.745Z,17.10
2023-04-26T02:55:54.884Z,17.10
2023-04-26T02:58:22.895Z,17.00
2023-04-26T03:00:51.082Z,17.10
2023-04-26T03:03:19.275Z,17.10
2023-04-26T03:05:48.925Z,17.10
2023-04-26T03:08:16.978Z,17.10
2023-04-26T03:10:45.670Z,17.10
2023-04-26T03:13:13.736Z,17.20
2023-04-26T03:15:45.681Z,17.20
2023-04-26T03:18:13.814Z,17.20
2023-04-26T03:20:42.460Z,17.10
2023-04-26T03:23:11.892Z,17.10
2023-04-26T03:25:39.957Z,17.00
2023-04-26T03:28:08.010Z,17.00
2023-04-26T03:30:36.055Z,16.90
2023-04-26T03:33:04.187Z,16.90
2023-04-26T03:35:32.284Z,16.90
2023-04-26T03:38:00.294Z,16.90
2023-04-26T03:40:29.973Z,16.90
2023-04-26T03:42:58.003Z,16.90
2023-04-26T03:45:26.976Z,16.90
2023-04-26T03:47:55.167Z,17.00
2023-04-26T03:50:23.361Z,17.00
2023-04-26T03:52:51.473Z,17.00
2023-04-26T03:55:19.558Z,17.00
2023-04-26T03:57:49.241Z,17.00
2023-04-26T04:00:17.404Z,16.90
2023-04-26T04:02:45.732Z,16.90
2023-04-26T04:05:14.041Z,16.90
2023-04-26T04:07:42.895Z,16.90
2023-04-26T04:10:11.802Z,17.00
2023-04-26T04:12:39.832Z,17.00
2023-04-26T04:15:11.144Z,17.00
2023-04-26T04:17:39.206Z,17.00
2023-04-26T04:20:09.336Z,17.00
2023-04-26T04:22:39.695Z,17.00
2023-04-26T04:25:09.402Z,17.00
2023-04-26T04:27:38.244Z,16.90
2023-04-26T04:30:09.057Z,16.90
2023-04-26T04:32:39.390Z,16.90
2023-04-26T04:35:08.183Z,16.90
2023-04-26T04:37:36.246Z,16.90
2023-04-26T04:40:05.088Z,16.90
2023-04-26T04:42:33.350Z,17.00
2023-04-26T04:45:01.622Z,16.90
2023-04-26T04:47:29.739Z,17.00
2023-04-26T04:49:59.339Z,17.00
2023-04-26T04:52:27.538Z,16.90
2023-04-26T04:54:56.062Z,16.90
2023-04-26T04:57:24.181Z,16.90
2023-04-26T04:59:52.750Z,16.90
2023-04-26T05:02:21.835Z,16.90
2023-04-26T05:04:50.191Z,16.90
2023-04-26T05:07:19.745Z,16.90
2023-04-26T05:09:48.639Z,16.90
2023-04-26T05:12:16.770Z,16.90
2023-04-26T05:14:44.840Z,17.00
2023-04-26T05:17:13.424Z,17.00
2023-04-26T05:19:41.549Z,17.00
2023-04-26T05:22:09.652Z,17.00
2023-04-26T05:24:39.111Z,17.00
2023-04-26T05:27:07.267Z,17.00
2023-04-26T05:29:35.320Z,16.90
2023-04-26T05:32:03.978Z,17.00
2023-04-26T05:34:32.136Z,16.90
2023-04-26T05:37:00.171Z,17.00
2023-04-26T05:39:28.241Z,17.00
2023-04-26T05:41:57.679Z,17.10
2023-04-26T05:44:25.758Z,17.10
2023-04-26T05:46:54.081Z,17.20
2023-04-26T05:49:22.207Z,17.30
2023-04-26T05:51:50.320Z,17.30
2023-04-26T05:54:18.423Z,17.30
2023-04-26T05:56:46.517Z,17.40
2023-04-26T05:59:15.953Z,17.40
2023-04-26T06:01:44.056Z,17.40
2023-04-26T06:04:12.249Z,17.50
2023-04-26T06:06:40.607Z,17.60
2023-04-26T06:09:08.718Z,17.60
2023-04-26T06:11:36.838Z,17.70
2023-04-26T06:14:04.929Z,17.80
2023-04-26T06:16:34.435Z,17.80
2023-04-26T06:19:02.683Z,17.90
2023-04-26T06:21:31.245Z,18.00
2023-04-26T06:23:59.315Z,18.00
2023-04-26T06:26:27.455Z,18.10
2023-04-26T06:28:55.520Z,18.10
2023-04-26T06:31:23.625Z,18.10
2023-04-26T06:33:53.359Z,18.10
2023-04-26T06:36:21.751Z,18.20
2023-04-26T06:38:49.875Z,18.20
2023-04-26T06:41:17.958Z,18.30
2023-04-26T06:43:46.059Z,18.40
2023-04-26T06:46:14.366Z,18.40
2023-04-26T06:48:42.620Z,18.40
2023-04-26T06:51:12.458Z,18.50
2023-04-26T06:53:41.606Z,18.50
2023-04-26T06:56:10.286Z,18.50
2023-04-26T06:58:38.322Z,18.50
2023-04-26T07:01:08.548Z,18.50
2023-04-26T07:03:36.786Z,18.50
2023-04-26T07:06:06.368Z,18.60
2023-04-26T07:08:35.845Z,18.60
2023-04-26T07:11:03.955Z,18.70
2023-04-26T07:13:32.250Z,18.70
2023-04-26T07:16:00.471Z,18.70
2023-04-26T07:18:28.613Z,18.80
2023-04-26T07:20:56.790Z,18.80
2023-04-26T07:23:24.940Z,18.90
2023-04-26T07:25:55.701Z,18.90
2023-04-26T07:28:24.399Z,18.90
2023-04-26T07:30:52.453Z,18.90
2023-04-26T07:33:20.692Z,18.80
2023-04-26T07:35:55.271Z,18.90
2023-04-26T07:38:23.341Z,18.90
2023-04-26T07:40:51.672Z,18.90
2023-04-26T07:43:21.722Z,18.80
2023-04-26T07:45:49.822Z,18.80
2023-04-26T07:48:18.136Z,18.80
2023-04-26T07:50:46.341Z,18.80
2023-04-26T07:53:14.477Z,18.90
2023-04-26T07:55:42.717Z,18.90
2023-04-26T07:58:14.562Z,18.90
2023-04-26T08:00:44.061Z,18.90
2023-04-26T08:03:13.674Z,18.90
2023-04-26T08:05:42.238Z,18.90
2023-04-26T08:08:11.032Z,18.90
2023-04-26T08:10:41.639Z,18.80
2023-04-26T08:13:09.949Z,18.80
2023-04-26T08:15:38.055Z,18.80
2023-04-26T08:18:07.602Z,18.80
2023-04-26T08:20:35.765Z,18.70
2023-04-26T08:23:03.795Z,18.70
2023-04-26T08:25:34.752Z,18.70
2023-04-26T08:28:02.913Z,18.70
2023-04-26T08:30:31.190Z,18.70
2023-04-26T08:32:59.364Z,18.60
2023-04-26T08:35:28.897Z,18.60
2023-04-26T08:37:57.009Z,18.60
2023-04-26T08:40:25.800Z,18.60
2023-04-26T08:42:54.057Z,18.70
2023-04-26T08:45:22.280Z,18.70
2023-04-26T08:47:51.132Z,18.70
2023-04-26T08:50:21.052Z,18.70
2023-04-26T08:52:51.521Z,18.70
2023-04-26T08:55:20.265Z,18.70
2023-04-26T08:57:48.893Z,18.70
2023-04-26T09:00:17.610Z,18.70
2023-04-26T09:02:48.509Z,18.70
2023-04-26T09:05:16.951Z,18.60
2023-04-26T09:07:46.190Z,18.60
2023-04-26T09:10:19.860Z,18.60
2023-04-26T09:12:47.977Z,18.60
2023-04-26T09:15:16.221Z,18.70
2023-04-26T09:17:45.993Z,18.70
2023-04-26T09:20:22.227Z,18.70
2023-04-26T09:22:50.651Z,18.70
2023-04-26T09:25:21.298Z,18.70
2023-04-26T09:27:50.208Z,18.70
2023-04-26T09:30:20.697Z,18.70
2023-04-26T09:32:53.231Z,18.70
2023-04-26T09:35:28.516Z,18.70
2023-04-26T09:38:02.117Z,18.60
2023-04-26T09:40:36.558Z,18.50
2023-04-26T09:43:05.365Z,18.50
2023-04-26T09:45:34.369Z,18.60
2023-04-26T09:48:16.752Z,18.60
2023-04-26T09:50:45.851Z,18.50
2023-04-26T09:53:25.690Z,18.50
2023-04-26T09:55:55.162Z,18.50
2023-04-26T09:58:23.526Z,18.60
2023-04-26T10:00:51.977Z,18.60
2023-04-26T10:03:20.457Z,18.60
2023-04-26T10:05:48.802Z,18.60
2023-04-26T10:08:16.944Z,18.60
2023-04-26T10:10:45.946Z,18.60
2023-04-26T10:13:15.379Z,18.50
2023-04-26T10:15:43.443Z,18.50
2023-04-26T10:18:11.901Z,18.50
2023-04-26T10:20:41.518Z,18.50
2023-04-26T10:23:13.220Z,18.50
2023-04-26T10:25:42.494Z,18.60
2023-04-26T10:28:10.910Z,18.60
2023-04-26T10:30:58.385Z,18.60
2023-04-26T10:33:27.273Z,18.60
2023-04-26T10:36:13.739Z,18.70
2023-04-26T10:38:43.025Z,18.60
2023-04-26T10:41:30.938Z,18.50
2023-04-26T10:44:34.856Z,18.50
2023-04-26T10:47:04.412Z,18.50
2023-04-26T10:49:32.537Z,18.60
2023-04-26T10:52:13.929Z,18.50
2023-04-26T10:54:47.108Z,18.50
2023-04-26T10:57:15.476Z,18.50
2023-04-26T11:00:16.950Z,18.60
2023-04-26T11:03:00.218Z,18.70
2023-04-26T11:05:35.716Z,18.70
2023-04-26T11:08:07.806Z,18.60
2023-04-26T11:10:38.268Z,18.60
2023-04-26T11:13:06.614Z,18.50
2023-04-26T11:15:34.693Z,18.50
2023-04-26T11:18:05.079Z,18.50
2023-04-26T11:20:33.598Z,18.60
2023-04-26T11:23:01.726Z,18.60
2023-04-26T11:25:29.980Z,18.60
2023-04-26T11:28:01.915Z,18.60
2023-04-26T11:30:31.786Z,18.70
2023-04-26T11:33:00.268Z,18.70
2023-04-26T11:35:29.959Z,18.70
2023-04-26T11:37:59.768Z,18.70
2023-04-26T11:40:31.527Z,18.70
2023-04-26T11:43:03.532Z,18.70
2023-04-26T11:45:35.918Z,18.60
2023-04-26T11:48:05.064Z,18.50
2023-04-26T11:50:34.646Z,18.50
2023-04-26T11:53:03.381Z,18.50
2023-04-26T11:55:33.140Z,18.50
2023-04-26T11:58:01.430Z,18.60
2023-04-26T12:00:29.489Z,18.60
2023-04-26T12:02:58.462Z,18.70
2023-04-26T12:05:27.670Z,18.70
2023-04-26T12:07:57.804Z,18.80
2023-04-26T12:10:27.905Z,18.80
2023-04-26T12:12:56.945Z,18.80
2023-04-26T12:15:25.763Z,18.70
2023-04-26T12:17:57.945Z,18.70
2023-04-26T12:20:33.610Z,18.70
2023-04-26T12:23:05.336Z,18.70
2023-04-26T12:25:34.270Z,18.70
2023-04-26T12:28:02.628Z,18.70
2023-04-26T12:30:31.417Z,18.70
2023-04-26T12:33:09.270Z,18.80
2023-04-26T12:35:44.219Z,18.80
2023-04-26T12:38:14.164Z,18.80
2023-04-26T12:40:42.913Z,18.80
2023-04-26T12:43:11.288Z,18.70
2023-04-26T12:45:39.354Z,18.70
2023-04-26T12:48:07.561Z,18.70
2023-04-26T12:50:35.663Z,18.70
2023-04-26T12:53:03.784Z,18.70
2023-04-26T12:55:33.267Z,18.70
2023-04-26T12:58:01.490Z,18.70
2023-04-26T13:00:29.665Z,18.80
2023-04-26T13:02:57.824Z,18.80
2023-04-26T13:05:25.962Z,18.80
2023-04-26T13:07:54.098Z,18.90
2023-04-26T13:10:22.192Z,18.80
2023-04-26T13:12:51.579Z,18.80
2023-04-26T13:15:19.765Z,18.80
2023-04-26T13:17:47.860Z,18.80
2023-04-26T13:20:15.965Z,18.70
2023-04-26T13:22:44.041Z,18.70
2023-04-26T13:25:13.249Z,18.80
2023-04-26T13:27:41.775Z,18.80
2023-04-26T13:30:12.541Z,18.70
2023-04-26T13:32:40.709Z,18.80
2023-04-26T13:35:09.294Z,18.80
2023-04-26T13:37:37.346Z,18.80
2023-04-26T13:40:06.294Z,18.90
2023-04-26T13:42:34.367Z,18.80
2023-04-26T13:45:06.395Z,18.80
2023-04-26T13:47:35.973Z,18.70
2023-04-26T13:50:04.350Z,18.70
2023-04-26T13:52:32.476Z,18.70
2023-04-26T13:55:00.783Z,18.70
2023-04-26T13:57:28.843Z,18.70
2023-04-26T13:59:56.969Z,18.70
2023-04-26T14:02:25.593Z,18.70
2023-04-26T14:04:55.508Z,18.70
2023-04-26T14:07:23.681Z,18.80
2023-04-26T14:09:51.976Z,18.80
2023-04-26T14:12:20.020Z,18.90
2023-04-26T14:14:50.922Z,18.80
2023-04-26T14:17:20.175Z,18.80
2023-04-26T14:19:48.356Z,18.80
2023-04-26T14:22:17.909Z,18.80
2023-04-26T14:24:46.092Z,18.80
2023-04-26T14:27:14.211Z,18.70
2023-04-26T14:29:42.275Z,18.70
2023-04-26T14:32:10.402Z,18.80
2023-04-26T14:34:40.046Z,18.70
2023-04-26T14:37:08.177Z,18.80
2023-04-26T14:39:37.723Z,18.80
2023-04-26T14:42:06.798Z,18.80
2023-04-26T14:44:34.841Z,18.80
2023-04-26T14:47:03.561Z,18.80
2023-04-26T14:49:31.671Z,18.80
2023-04-26T14:51:59.754Z,18.70
2023-04-26T14:54:29.006Z,18.70
2023-04-26T14:56:58.709Z,18.70
2023-04-26T14:59:26.927Z,18.70
2023-04-26T15:01:55.172Z,18.60
2023-04-26T15:04:23.522Z,18.70
2023-04-26T15:06:51.947Z,18.70
2023-04-26T15:09:20.127Z,18.70
2023-04-26T15:11:48.191Z,18.80
2023-04-26T15:14:17.606Z,18.80
2023-04-26T15:16:45.763Z,18.70
2023-04-26T15:19:13.868Z,18.60
2023-04-26T15:21:42.407Z,18.60
2023-04-26T15:24:10.478Z,18.60
2023-04-26T15:26:38.601Z,18.60
2023-04-26T15:29:06.661Z,18.60
2023-04-26T15:31:37.048Z,18.60
2023-04-26T15:34:05.373Z,18.60
2023-04-26T15:36:33.436Z,18.60
2023-04-26T15:39:02.052Z,18.70
2023-04-26T15:41:30.126Z,18.70
2023-04-26T15:43:59.558Z,18.70
2023-04-26T15:46:27.713Z,18.60
2023-04-26T15:49:05.419Z,18.60
2023-04-26T15:51:33.543Z,18.60
2023-04-26T15:54:01.653Z,18.50
2023-04-26T15:56:29.731Z,18.40
2023-04-26T15:58:58.281Z,18.50
2023-04-26T16:01:26.480Z,18.50
2023-04-26T16:03:54.844Z,18.40
2023-04-26T16:06:24.370Z,18.40
2023-04-26T16:08:52.454Z,18.50
2023-04-26T16:11:20.451Z,18.50
2023-04-26T16:13:51.831Z,18.50
2023-04-26T16:16:20.151Z,18.60
2023-04-26T16:18:48.274Z,18.50
2023-04-26T16:21:16.647Z,18.50
2023-04-26T16:23:46.359Z,18.50
2023-04-26T16:26:14.488Z,18.40
2023-04-26T16:28:42.714Z,18.40
2023-04-26T16:31:10.976Z,18.40
2023-04-26T16:33:39.127Z,18.40
2023-04-26T16:36:09.141Z,18.40
2023-04-26T16:38:37.212Z,18.40
2023-04-26T16:41:07.262Z,18.40
2023-04-26T16:43:35.328Z,18.50
2023-04-26T16:46:05.513Z,18.50
2023-04-26T16:48:35.443Z,18.40
2023-04-26T16:51:06.963Z,18.40
2023-04-26T16:53:36.054Z,18.40
2023-04-26T16:56:04.367Z,18.40
2023-04-26T16:58:33.933Z,18.30
2023-04-26T17:01:02.162Z,18.30
2023-04-26T17:03:30.357Z,18.30
2023-04-26T17:05:58.809Z,18.30
2023-04-26T17:08:27.323Z,18.30
2023-04-26T17:10:56.684Z,18.40
2023-04-26T17:13:29.318Z,18.40
2023-04-26T17:15:58.934Z,18.40
2023-04-26T17:18:27.145Z,18.40
2023-04-26T17:20:56.422Z,18.30
2023-04-26T17:23:24.710Z,18.20
2023-04-26T17:25:54.508Z,18.20
2023-04-26T17:28:23.443Z,18.20
2023-04-26T17:30:52.058Z,18.20
2023-04-26T17:33:21.613Z,18.30
2023-04-26T17:35:50.623Z,18.20
2023-04-26T17:38:18.875Z,18.30
2023-04-26T17:40:46.956Z,18.30
2023-04-26T17:43:15.157Z,18.30
2023-04-26T17:45:43.323Z,18.30
2023-04-26T17:48:13.458Z,18.20
2023-04-26T17:50:43.097Z,18.20
2023-04-26T17:53:11.658Z,18.20
2023-04-26T17:55:40.636Z,18.20
2023-04-26T17:58:08.778Z,18.20
2023-04-26T18:00:37.128Z,18.10
2023-04-26T18:03:07.153Z,18.10
2023-04-26T18:05:36.420Z,18.10
2023-04-26T18:08:06.087Z,18.00
2023-04-26T18:10:34.355Z,18.10
2023-04-26T18:13:03.070Z,18.10
2023-04-26T18:15:31.245Z,18.20
2023-04-26T18:17:59.402Z,18.20
2023-04-26T18:20:30.652Z,18.10
2023-04-26T18:22:58.864Z,18.20
2023-04-26T18:25:28.712Z,18.10
2023-04-26T18:27:56.982Z,18.10
2023-04-26T18:30:25.076Z,18.20
2023-04-26T18:32:53.564Z,18.00
2023-04-26T18:35:22.156Z,18.00
2023-04-26T18:37:50.327Z,18.10
2023-04-26T18:40:18.570Z,18.00
2023-04-26T18:42:48.134Z,18.00
2023-04-26T18:45:16.522Z,18.10
2023-04-26T18:47:44.634Z,18.10
2023-04-26T18:50:13.047Z,18.10
2023-04-26T18:52:41.450Z,18.10
2023-04-26T18:55:10.646Z,18.00
2023-04-26T18:57:38.753Z,18.00
2023-04-26T19:00:10.001Z,18.00
2023-04-26T19:02:40.405Z,18.00
2023-04-26T19:05:09.782Z,17.90
2023-04-26T19:07:38.172Z,17.90
2023-04-26T19:10:07.640Z,18.00
2023-04-26T19:12:35.710Z,18.00
2023-04-26T19:15:03.966Z,18.00
2023-04-26T19:17:34.410Z,18.00
2023-04-26T19:20:02.944Z,18.00
2023-04-26T19:22:31.284Z,17.90
2023-04-26T19:24:59.438Z,17.90
2023-04-26T19:27:27.527Z,17.90
2023-04-26T19:29:55.775Z,17.80
2023-04-26T19:32:24.064Z,17.90
2023-04-26T19:34:53.613Z,17.90
2023-04-26T19:37:21.675Z,17.90
2023-04-26T19:39:49.739Z,17.90
2023-04-26T19:42:17.896Z,17.90
2023-04-26T19:44:46.190Z,17.90
2023-04-26T19:47:14.433Z,17.90
2023-04-26T19:49:42.579Z,17.80
2023-04-26T19:52:13.541Z,17.70
2023-04-26T19:54:41.638Z,17.70
2023-04-26T19:57:09.706Z,17.70
2023-04-26T19:59:37.780Z,17.70
2023-04-26T20:02:06.898Z,17.80
2023-04-26T20:04:35.075Z,17.70
2023-04-26T20:07:04.994Z,17.80
2023-04-26T20:09:35.745Z,17.80
2023-04-26T20:12:04.141Z,17.80
2023-04-26T20:14:32.316Z,17.80
2023-04-26T20:17:02.401Z,17.80
2023-04-26T20:19:30.676Z,17.80
2023-04-26T20:21:58.751Z,17.70
2023-04-26T20:24:28.241Z,17.70
2023-04-26T20:26:57.719Z,17.70
2023-04-26T20:29:25.864Z,17.70
2023-04-26T20:31:54.017Z,17.70
2023-04-26T20:34:22.216Z,17.70
2023-04-26T20:36:50.477Z,17.70
2023-04-26T20:41:55.459Z,17.60
2023-04-26T20:44:25.028Z,17.60
2023-04-26T20:46:53.314Z,17.60
2023-04-26T20:49:21.433Z,17.70
2023-04-26T20:51:49.480Z,17.60
2023-04-26T20:54:17.550Z,17.60
2023-04-26T20:56:45.612Z,17.60
2023-04-26T20:59:13.717Z,17.60
2023-04-26T21:01:43.252Z,17.70
2023-04-26T21:04:11.562Z,17.60
2023-04-26T21:06:40.289Z,17.70
2023-04-26T21:09:08.773Z,17.70
2023-04-26T21:11:37.050Z,17.70
2023-04-26T21:14:06.753Z,17.70
2023-04-26T21:16:34.806Z,17.60
2023-04-26T21:19:05.100Z,17.60
2023-04-26T21:21:33.675Z,17.60
2023-04-26T21:24:02.716Z,17.60
2023-04-26T21:26:31.079Z,17.50
2023-04-26T21:28:59.114Z,17.40
2023-04-26T21:31:27.246Z,17.50
2023-04-26T21:33:55.380Z,17.50
2023-04-26T21:36:24.886Z,17.50
2023-04-26T21:38:52.994Z,17.60
2023-04-26T21:41:21.112Z,17.60
2023-04-26T21:43:50.235Z,17.60
2023-04-26T21:46:18.380Z,17.60
2023-04-26T21:48:46.470Z,17.50
2023-04-26T21:51:14.528Z,17.50
2023-04-26T21:53:43.999Z,17.40
2023-04-26T21:56:12.140Z,17.40
2023-04-26T21:58:40.204Z,17.40
2023-04-26T22:01:09.921Z,17.40
2023-04-26T22:03:38.311Z,17.40
2023-04-26T22:06:07.217Z,17.40
2023-04-26T22:08:35.693Z,17.50
2023-04-26T22:11:05.174Z,17.50
2023-04-26T22:13:33.408Z,17.50
2023-04-26T22:16:01.532Z,17.50
2023-04-26T22:18:29.649Z,17.50
2023-04-26T22:20:57.759Z,17.50
2023-04-26T22:23:25.866Z,17.40
2023-04-26T22:25:53.957Z,17.40
2023-04-26T22:28:23.388Z,17.40
2023-04-26T22:30:51.495Z,17.50
2023-04-26T22:33:19.585Z,17.50
2023-04-26T22:35:47.692Z,17.40
2023-04-26T22:38:15.990Z,17.40
2023-04-26T22:40:44.085Z,17.40
2023-04-26T22:43:12.170Z,17.50
2023-04-26T22:45:41.679Z,17.50
2023-04-26T22:48:09.800Z,17.50
2023-04-26T22:50:37.904Z,17.50
2023-04-26T22:53:05.969Z,17.40
2023-04-26T22:55:34.052Z,17.40
2023-04-26T22:58:02.099Z,17.40
2023-04-26T23:00:30.162Z,17.40
2023-04-26T23:02:59.700Z,17.50
2023-04-26T23:05:27.918Z,17.40
2023-04-26T23:07:55.989Z,17.50
2023-04-26T23:10:24.077Z,17.50
2023-04-26T23:12:52.108Z,17.50
2023-04-26T23:15:20.231Z,17.50
2023-04-26T23:17:48.661Z,17.50
2023-04-26T23:20:18.219Z,17.40
2023-04-26T23:22:46.346Z,17.40
2023-04-26T23:25:14.483Z,17.40
2023-04-26T23:27:42.547Z,17.30
2023-04-26T23:30:11.917Z,17.40
2023-04-26T23:32:40.037Z,17.40
2023-04-26T23:35:08.833Z,17.40
2023-04-26T23:37:38.282Z,17.30
2023-04-26T23:40:09.080Z,17.40
2023-04-26T23:42:37.369Z,17.40
2023-04-26T23:45:07.816Z,17.40
2023-04-26T23:47:35.973Z,17.40
2023-04-26T23:50:04.079Z,17.30
2023-04-26T23:52:32.112Z,17.30
2023-04-26T23:55:01.567Z,17.20
2023-04-26T23:57:29.618Z,17.20
2023-04-26T23:59:57.665Z,17.20
